Time,TemperatureF,DewpointF,PressureIn,WindDirection,WindDirectionDegrees,WindSpeedMPH,WindSpeedGustMPH,Humidity,HourlyPrecipIn,Conditions,Clouds,dailyrainin,SoftwareType,DateUTC
2013-01-16 00:21:00,66.8,63.0,30.02,SW,226,0.0,-999.0,88,-99.99,,,0.00,weatherlink.com 1.10,2013-01-16 05:21:00,
2013-01-16 00:36:00,66.5,63.0,30.02,SW,215,2.0,-999.0,88,-99.99,,,0.00,weatherlink.com 1.10,2013-01-16 05:36:00,
2013-01-16 00:51:00,66.2,63.0,30.02,SW,235,0.0,-999.0,89,-99.99,,,0.00,weatherlink.com 1.10,2013-01-16 05:51:00,
2013-01-16 01:06:00,66.1,63.0,30.01,SW,233,3.0,-999.0,90,-99.99,,,0.00,weatherlink.com 1.10,2013-01-16 06:06:00,
2013-01-16 01:21:00,65.9,63.0,30.01,SW,235,1.0,-999.0,90,-99.99,,,0.00,weatherlink.com 1.10,2013-01-16 06:21:00,
2013-01-16 01:36:00,65.9,63.0,30.01,SSW,194,2.0,-999.0,90,-99.99,,,0.00,weatherlink.com 1.10,2013-01-16 06:36:00,
2013-01-16 01:51:00,65.9,63.0,30.01,West,261,1.0,-999.0,90,-99.99,,,0.00,weatherlink.com 1.10,2013-01-16 06:51:00,
2013-01-16 02:06:00,65.7,63.0,30.02,SW,225,0.0,-999.0,90,-99.99,,,0.00,weatherlink.com 1.10,2013-01-16 07:06:00,
2013-01-16 02:21:00,65.5,63.0,30.01,WSW,238,3.0,-999.0,90,-99.99,,,0.00,weatherlink.com 1.10,2013-01-16 07:21:00,
2013-01-16 02:36:00,65.3,63.0,30.01,WSW,241,2.0,-999.0,91,-99.99,,,0.00,weatherlink.com 1.10,2013-01-16 07:36:00,
2013-01-16 02:51:00,65.4,63.0,30.01,WSW,250,1.0,-999.0,91,-99.99,,,0.00,weatherlink.com 1.10,2013-01-16 07:51:00,
2013-01-16 03:06:00,65.3,63.0,30.01,WSW,249,0.0,-999.0,91,-99.99,,,0.00,weatherlink.com 1.10,2013-01-16 08:06:00,
2013-01-16 03:21:00,65.1,63.0,30.01,WSW,249,0.0,-999.0,91,-99.99,,,0.00,weatherlink.com 1.10,2013-01-16 08:21:00,
2013-01-16 03:36:00,65.0,63.0,30.01,SW,222,0.0,-999.0,92,-99.99,,,0.00,weatherlink.com 1.10,2013-01-16 08:36:00,
2013-01-16 03:51:00,64.9,63.0,30.00,SW,222,1.0,-999.0,92,-99.99,,,0.00,weatherlink.com 1.10,2013-01-16 08:51:00,
2013-01-16 04:06:00,64.8,63.0,30.00,WSW,241,0.0,-999.0,92,-99.99,,,0.00,weatherlink.com 1.10,2013-01-16 09:06:00,
2013-01-16 04:21:00,64.7,62.0,30.00,SW,221,4.0,-999.0,92,-99.99,,,0.00,weatherlink.com 1.10,2013-01-16 09:21:00,
2013-01-16 04:36:00,64.5,62.0,30.00,WSW,238,2.0,-999.0,92,-99.99,,,0.00,weatherlink.com 1.10,2013-01-16 09:36:00,
2013-01-16 04:51:00,64.5,62.0,30.00,WSW,248,0.0,-999.0,92,-99.99,,,0.00,weatherlink.com 1.10,2013-01-16 09:51:00,
2013-01-16 05:06:00,64.2,62.0,30.00,WSW,248,0.0,-999.0,92,-99.99,,,0.00,weatherlink.com 1.10,2013-01-16 10:06:00,
2013-01-16 05:21:00,-999.0,-99.9,30.00,North,-999,-999.0,-999.0,-999,-99.99,,,0.00,weatherlink.com 1.10,2013-01-16 10:21:00,
2013-01-16 05:36:00,-999.0,-99.9,30.00,North,-999,-999.0,-999.0,-999,-99.99,,,0.00,weatherlink.com 1.10,2013-01-16 10:36:00,
2013-01-16 05:51:00,-999.0,-99.9,30.00,North,-999,-999.0,-999.0,-999,-99.99,,,0.00,weatherlink.com 1.10,2013-01-16 10:51:00,
2013-01-16 06:06:00,-999.0,-99.9,30.01,North,-999,-999.0,-999.0,-999,-99.99,,,0.00,weatherlink.com 1.10,2013-01-16 11:06:00,
2013-01-16 06:21:00,-999.0,-99.9,30.01,North,-999,-999.0,-999.0,-999,-99.99,,,0.00,weatherlink.com 1.10,2013-01-16 11:21:00,
2013-01-16 06:36:00,-999.0,-99.9,30.01,North,-999,-999.0,-999.0,-999,-99.99,,,0.00,weatherlink.com 1.10,2013-01-16 11:36:00,
2013-01-16 06:52:00,-999.0,-99.9,30.01,North,-999,-999.0,-999.0,-999,-99.99,,,0.00,weatherlink.com 1.10,2013-01-16 11:52:00,
2013-01-16 07:07:00,-999.0,-99.9,30.02,North,-999,-999.0,-999.0,-999,-99.99,,,0.00,weatherlink.com 1.10,2013-01-16 12:07:00,
2013-01-16 07:22:00,-999.0,-99.9,30.02,North,-999,-999.0,-999.0,-999,-99.99,,,0.00,weatherlink.com 1.10,2013-01-16 12:22:00,
2013-01-16 07:37:00,-999.0,-99.9,30.03,North,-999,-999.0,-999.0,-999,-99.99,,,0.00,weatherlink.com 1.10,2013-01-16 12:37:00,
2013-01-16 07:55:00,-999.0,-99.9,30.04,North,-999,-999.0,-999.0,-999,-99.99,,,0.00,weatherlink.com 1.10,2013-01-16 12:55:00,
2013-01-16 08:11:00,-999.0,-99.9,30.04,North,-999,-999.0,-999.0,-999,-99.99,,,0.00,weatherlink.com 1.10,2013-01-16 13:11:00,
2013-01-16 08:27:00,66.0,62.0,30.04,South,172,0.0,-999.0,87,-99.99,,,0.00,weatherlink.com 1.10,2013-01-16 13:27:00,
2013-01-16 08:45:00,67.1,63.0,30.05,South,172,0.0,-999.0,85,-99.99,,,0.00,weatherlink.com 1.10,2013-01-16 13:45:00,
2013-01-16 09:01:00,67.1,65.0,30.05,WSW,254,1.0,-999.0,91,-99.99,,,0.00,weatherlink.com 1.10,2013-01-16 14:01:00,
2013-01-16 09:17:00,69.0,65.0,30.05,WSW,244,0.0,-999.0,87,-99.99,,,0.00,weatherlink.com 1.10,2013-01-16 14:17:00,
2013-01-16 09:33:00,70.5,66.0,30.05,WSW,256,7.0,-999.0,84,-99.99,,,0.00,weatherlink.com 1.10,2013-01-16 14:33:00,
2013-01-16 09:51:00,71.5,65.0,30.06,WSW,247,7.0,-999.0,80,-99.99,,,0.00,weatherlink.com 1.10,2013-01-16 14:51:00,
2013-01-16 10:06:00,72.2,65.0,30.06,WSW,245,0.0,-999.0,78,-99.99,,,0.00,weatherlink.com 1.10,2013-01-16 15:06:00,
2013-01-16 10:23:00,73.0,64.0,30.06,West,272,3.0,-999.0,74,-99.99,,,0.00,weatherlink.com 1.10,2013-01-16 15:23:00,
2013-01-16 10:40:00,73.3,64.0,30.05,SE,128,0.0,-999.0,73,-99.99,,,0.00,weatherlink.com 1.10,2013-01-16 15:40:00,
2013-01-16 10:56:00,74.7,64.0,30.04,West,268,5.0,-999.0,69,-99.99,,,0.00,weatherlink.com 1.10,2013-01-16 15:56:00,
2013-01-16 11:12:00,75.4,62.0,30.03,West,279,6.0,-999.0,64,-99.99,,,0.00,weatherlink.com 1.10,2013-01-16 16:12:00,
2013-01-16 11:30:00,76.0,63.0,30.03,West,269,6.0,-999.0,64,-99.99,,,0.00,weatherlink.com 1.10,2013-01-16 16:30:00,
2013-01-16 11:46:00,77.0,61.0,30.02,WSW,251,9.0,-999.0,59,-99.99,,,0.00,weatherlink.com 1.10,2013-01-16 16:46:00,
2013-01-16 12:03:00,78.0,61.0,30.02,NW,319,4.0,-999.0,57,-99.99,,,0.00,weatherlink.com 1.10,2013-01-16 17:03:00,
2013-01-16 12:18:00,78.7,61.0,30.01,West,276,8.0,-999.0,55,-99.99,,,0.00,weatherlink.com 1.10,2013-01-16 17:18:00,
2013-01-16 12:35:00,77.9,61.0,30.00,West,259,3.0,-999.0,57,-99.99,,,0.00,weatherlink.com 1.10,2013-01-16 17:35:00,
2013-01-16 12:52:00,78.3,61.0,29.99,WNW,297,1.0,-999.0,56,-99.99,,,0.00,weatherlink.com 1.10,2013-01-16 17:52:00,
2013-01-16 13:08:00,78.3,61.0,29.99,West,265,6.0,-999.0,55,-99.99,,,0.00,weatherlink.com 1.10,2013-01-16 18:08:00,
2013-01-16 13:24:00,78.7,61.0,29.98,NW,312,1.0,-999.0,55,-99.99,,,0.00,weatherlink.com 1.10,2013-01-16 18:24:00,
2013-01-16 13:42:00,78.7,61.0,29.98,SSW,192,2.0,-999.0,54,-99.99,,,0.00,weatherlink.com 1.10,2013-01-16 18:42:00,
2013-01-16 13:58:00,78.7,61.0,29.97,ESE,118,1.0,-999.0,55,-99.99,,,0.00,weatherlink.com 1.10,2013-01-16 18:58:00,
2013-01-16 14:14:00,80.3,61.0,29.96,WNW,284,0.0,-999.0,52,-99.99,,,0.00,weatherlink.com 1.10,2013-01-16 19:14:00,
2013-01-16 14:31:00,80.5,61.0,29.96,West,281,4.0,-999.0,51,-99.99,,,0.00,weatherlink.com 1.10,2013-01-16 19:31:00,
2013-01-16 14:47:00,79.4,60.0,29.96,WSW,250,0.0,-999.0,51,-99.99,,,0.00,weatherlink.com 1.10,2013-01-16 19:47:00,
2013-01-16 15:04:00,81.0,60.0,29.96,SSW,193,3.0,-999.0,49,-99.99,,,0.00,weatherlink.com 1.10,2013-01-16 20:04:00,
2013-01-16 15:20:00,81.4,60.0,29.96,WSW,240,0.0,-999.0,49,-99.99,,,0.00,weatherlink.com 1.10,2013-01-16 20:20:00,
2013-01-16 15:37:00,81.0,60.0,29.96,WSW,244,3.0,-999.0,49,-99.99,,,0.00,weatherlink.com 1.10,2013-01-16 20:37:00,
2013-01-16 15:53:00,80.0,60.0,29.96,SSW,207,0.0,-999.0,51,-99.99,,,0.00,weatherlink.com 1.10,2013-01-16 20:53:00,
2013-01-16 16:09:00,80.5,60.0,29.96,SSW,194,0.0,-999.0,50,-99.99,,,0.00,weatherlink.com 1.10,2013-01-16 21:09:00,
2013-01-16 16:26:00,81.1,60.0,29.96,SW,215,3.0,-999.0,49,-99.99,,,0.00,weatherlink.com 1.10,2013-01-16 21:26:00,
2013-01-16 16:42:00,81.1,60.0,29.96,SSE,161,1.0,-999.0,49,-99.99,,,0.00,weatherlink.com 1.10,2013-01-16 21:42:00,
2013-01-16 16:59:00,81.2,60.0,29.96,East,90,1.0,-999.0,48,-99.99,,,0.00,weatherlink.com 1.10,2013-01-16 21:59:00,
2013-01-16 17:16:00,80.9,60.0,29.96,West,269,1.0,-999.0,49,-99.99,,,0.00,weatherlink.com 1.10,2013-01-16 22:16:00,
2013-01-16 17:32:00,79.6,60.0,29.96,WSW,237,0.0,-999.0,51,-99.99,,,0.00,weatherlink.com 1.10,2013-01-16 22:32:00,
2013-01-16 17:48:00,78.5,60.0,29.97,WSW,248,1.0,-999.0,53,-99.99,,,0.00,weatherlink.com 1.10,2013-01-16 22:48:00,
2013-01-16 18:04:00,77.4,60.0,29.97,SW,218,0.0,-999.0,55,-99.99,,,0.00,weatherlink.com 1.10,2013-01-16 23:04:00,
2013-01-16 18:22:00,76.3,60.0,29.97,SW,233,2.0,-999.0,57,-99.99,,,0.00,weatherlink.com 1.10,2013-01-16 23:22:00,
2013-01-16 18:38:00,75.5,60.0,29.97,SW,230,0.0,-999.0,59,-99.99,,,0.00,weatherlink.com 1.10,2013-01-16 23:38:00,
2013-01-16 18:53:00,74.7,60.0,29.97,SSW,202,0.0,-999.0,60,-99.99,,,0.00,weatherlink.com 1.10,2013-01-16 23:53:00,
2013-01-16 19:08:00,74.0,60.0,29.98,SSW,202,1.0,-999.0,61,-99.99,,,0.00,weatherlink.com 1.10,2013-01-17 00:08:00,
2013-01-16 19:23:00,73.4,59.0,29.98,South,188,1.0,-999.0,62,-99.99,,,0.00,weatherlink.com 1.10,2013-01-17 00:23:00,
2013-01-16 19:38:00,72.9,59.0,29.98,South,189,0.0,-999.0,63,-99.99,,,0.00,weatherlink.com 1.10,2013-01-17 00:38:00,
2013-01-16 19:53:00,72.3,59.0,29.98,SSW,193,0.0,-999.0,64,-99.99,,,0.00,weatherlink.com 1.10,2013-01-17 00:53:00,
2013-01-16 20:08:00,71.4,61.0,29.99,South,173,5.0,-999.0,70,-99.99,,,0.00,weatherlink.com 1.10,2013-01-17 01:08:00,
2013-01-16 20:23:00,70.5,63.0,29.99,SSW,192,2.0,-999.0,78,-99.99,,,0.00,weatherlink.com 1.10,2013-01-17 01:23:00,
2013-01-16 20:38:00,70.0,64.0,30.00,South,187,2.0,-999.0,80,-99.99,,,0.00,weatherlink.com 1.10,2013-01-17 01:38:00,
2013-01-16 20:54:00,69.6,64.0,30.00,SSE,161,1.0,-999.0,83,-99.99,,,0.00,weatherlink.com 1.10,2013-01-17 01:54:00,
2013-01-16 21:09:00,69.3,64.0,29.99,South,182,1.0,-999.0,84,-99.99,,,0.00,weatherlink.com 1.10,2013-01-17 02:09:00,
2013-01-16 21:24:00,69.0,64.0,29.99,SSW,196,0.0,-999.0,85,-99.99,,,0.00,weatherlink.com 1.10,2013-01-17 02:24:00,
2013-01-16 21:39:00,68.8,65.0,29.99,SSW,194,2.0,-999.0,87,-99.99,,,0.00,weatherlink.com 1.10,2013-01-17 02:39:00,
2013-01-16 21:54:00,68.7,65.0,29.99,SW,232,0.0,-999.0,87,-99.99,,,0.00,weatherlink.com 1.10,2013-01-17 02:54:00,
2013-01-16 22:09:00,68.6,65.0,29.99,SSW,205,0.0,-999.0,87,-99.99,,,0.00,weatherlink.com 1.10,2013-01-17 03:09:00,
2013-01-16 22:24:00,68.5,65.0,29.99,SSW,211,1.0,-999.0,88,-99.99,,,0.00,weatherlink.com 1.10,2013-01-17 03:24:00,
2013-01-16 22:39:00,68.4,65.0,29.98,SSW,203,0.0,-999.0,88,-99.99,,,0.00,weatherlink.com 1.10,2013-01-17 03:39:00,
2013-01-16 22:54:00,68.2,65.0,29.98,SSW,201,1.0,-999.0,89,-99.99,,,0.00,weatherlink.com 1.10,2013-01-17 03:54:00,
2013-01-16 23:09:00,68.0,65.0,29.98,SSW,207,2.0,-999.0,89,-99.99,,,0.00,weatherlink.com 1.10,2013-01-17 04:09:00,
2013-01-16 23:24:00,67.9,65.0,29.98,WSW,252,1.0,-999.0,89,-99.99,,,0.00,weatherlink.com 1.10,2013-01-17 04:24:00,
2013-01-16 23:39:00,67.7,65.0,29.98,SSW,213,0.0,-999.0,90,-99.99,,,0.00,weatherlink.com 1.10,2013-01-17 04:39:00,
2013-01-16 23:54:00,67.5,65.0,29.98,WSW,257,2.0,-999.0,90,-99.99,,,0.00,weatherlink.com 1.10,2013-01-17 04:54:00,